Time;durP1;ratioP1;P1;durP2;ratioP2;P2;SDS_P1;SDS_P2;PMS_P1;PMS_P2;Temp;Humidity;BMP_temperature;BMP_pressure;BME280_temperature;BME280_humidity;BME280_pressure;Samples;Min_cycle;Max_cycle;Signal;HPM_P1;HPM_P2
2024/04/11 04:45:36;;;;;;;14.90;6.10;;;;;;;11.87;94.86;100877.98;112918;1238;22348;-44
2024/04/11 04:48:03;;;;;;;12.60;7.00;;;;;;;12.01;94.38;100882.57;112992;1239;22436;-45
2024/04/11 04:50:30;;;;;;;11.60;5.60;;;;;;;12.14;94.10;100883.14;111567;1239;22493;-43
2024/04/11 04:52:59;;;;;;;18.30;6.10;;;;;;;12.28;93.66;100882.13;112946;1249;23328;-43
2024/04/11 04:55:26;;;;;;;16.40;6.40;;;;;;;12.42;92.84;100879.36;112983;1249;22302;-44
2024/04/11 04:57:55;;;;;;;13.40;6.50;;;;;;;12.57;91.99;100880.95;111931;1240;25394;-49
2024/04/11 05:00:24;;;;;;;22.90;6.60;;;;;;;12.70;91.15;100879.39;112983;1240;22404;-49
2024/04/11 05:02:54;;;;;;;11.40;7.00;;;;;;;12.85;90.34;100875.37;112578;1249;25378;-50
2024/04/11 05:05:21;;;;;;;16.20;6.80;;;;;;;12.98;89.41;100879.04;112417;1249;22927;-51
2024/04/11 05:07:52;;;;;;;23.40;7.40;;;;;;;13.12;88.23;100880.60;112972;1238;23682;-50
2024/04/11 05:10:20;;;;;;;17.70;5.80;;;;;;;13.25;87.47;100885.87;112626;1239;24182;-49
2024/04/11 05:12:49;;;;;;;16.50;6.60;;;;;;;13.36;87.10;100886.73;112856;1238;23033;-46
2024/04/11 05:15:17;;;;;;;17.40;5.90;;;;;;;13.49;86.77;100885.82;112901;1240;22393;-44
2024/04/11 05:17:45;;;;;;;13.00;5.70;;;;;;;13.66;86.09;100889.45;112861;1246;22397;-51
2024/04/11 05:20:21;;;;;;;21.90;6.20;;;;;;;13.81;85.37;100887.47;112785;1236;23045;-50
2024/04/11 05:22:58;;;;;;;7.40;5.30;;;;;;;13.99;84.18;100887.22;112811;1246;22382;-50
2024/04/11 05:25:36;;;;;;;14.40;6.00;;;;;;;14.16;82.98;100884.51;112420;1246;22357;-44
2024/04/11 05:28:07;;;;;;;16.90;6.20;;;;;;;14.31;82.12;100885.83;112558;1239;23566;-44
2024/04/11 05:30:43;;;;;;;29.60;6.20;;;;;;;14.44;80.56;100885.40;112588;1238;22331;-50
2024/04/11 05:33:30;;;;;;;24.50;6.20;;;;;;;14.56;79.84;100885.16;112638;1239;23168;-50
2024/04/11 05:36:12;;;;;;;17.00;6.20;;;;;;;14.70;79.30;100886.46;112627;1248;23504;-50
2024/04/11 05:39:04;;;;;;;29.50;6.90;;;;;;;14.83;79.22;100888.30;112529;1245;22813;-50
2024/04/11 05:42:50;;;;;;;27.10;5.50;;;;;;;15.07;78.55;100895.83;112398;1249;22508;-44
2024/04/11 05:49:35;;;;;;;28.00;5.20;;;;;;;15.55;77.28;100893.95;112560;1249;22999;-48
2024/04/11 05:53:08;;;;;;;24.20;6.20;;;;;;;15.77;76.67;100897.77;112511;1249;22598;-49
2024/04/11 05:55:53;;;;;;;18.60;5.60;;;;;;;16.02;75.74;100898.86;112703;1249;22312;-49
2024/04/11 05:58:27;;;;;;;16.70;5.50;;;;;;;16.23;75.72;100899.82;112577;1247;22210;-49
2024/04/11 06:01:05;;;;;;;19.10;5.70;;;;;;;16.44;75.49;100900.23;112687;1249;23179;-42
2024/04/11 06:03:54;;;;;;;15.60;5.40;;;;;;;16.68;74.66;100900.77;111989;1249;22448;-51
2024/04/11 06:06:24;;;;;;;11.40;5.60;;;;;;;16.88;73.87;100896.05;112372;1249;22534;-49
2024/04/11 06:08:51;;;;;;;11.40;4.60;;;;;;;17.09;73.15;100893.77;112328;1249;22445;-44
2024/04/11 06:11:37;;;;;;;12.80;4.50;;;;;;;17.30;72.38;100895.33;112794;1241;22361;-42
2024/04/11 06:14:16;;;;;;;13.00;5.40;;;;;;;17.54;71.20;100892.59;112428;1244;22709;-43
2024/04/11 06:16:51;;;;;;;9.10;4.60;;;;;;;17.76;70.29;100893.05;112502;1234;23298;-49
2024/04/11 06:23:17;;;;;;;9.70;4.20;;;;;;;18.34;68.59;100889.17;112476;1249;22826;-43
2024/04/11 06:26:14;;;;;;;11.90;4.80;;;;;;;18.62;68.10;100888.73;112452;1249;22310;-50
2024/04/11 06:28:49;;;;;;;15.70;4.50;;;;;;;18.87;67.34;100885.48;111224;1249;22603;-50
2024/04/11 06:31:28;;;;;;;9.90;4.40;;;;;;;19.12;65.66;100886.44;112612;1249;22493;-50
2024/04/11 06:34:02;;;;;;;10.00;4.30;;;;;;;19.35;65.19;100885.30;112538;1249;22466;-50
2024/04/11 06:36:33;;;;;;;10.70;4.00;;;;;;;19.59;64.42;100886.44;112715;1249;22371;-43
2024/04/11 06:39:02;;;;;;;7.80;3.70;;;;;;;19.83;63.53;100886.80;112325;1249;23298;-49
2024/04/11 06:41:32;;;;;;;13.80;3.70;;;;;;;20.10;60.06;100889.04;111831;1249;22554;-43
2024/04/11 06:44:08;;;;;;;12.20;4.10;;;;;;;20.38;57.12;100889.77;112405;1249;22273;-51
2024/04/11 06:46:44;;;;;;;6.50;3.70;;;;;;;20.67;56.43;100891.73;112382;1249;22380;-44
2024/04/11 06:49:12;;;;;;;7.90;3.50;;;;;;;20.94;55.22;100886.77;112464;1249;22501;-43
2024/04/11 06:51:40;;;;;;;9.40;3.70;;;;;;;21.19;53.62;100889.98;112780;1249;22491;-43
2024/04/11 06:54:09;;;;;;;13.10;3.80;;;;;;;21.40;51.90;100891.41;112763;1249;22366;-44
2024/04/11 06:56:39;;;;;;;9.80;4.00;;;;;;;21.59;51.02;100890.75;112301;1249;22700;-49
2024/04/11 06:59:22;;;;;;;10.40;3.40;;;;;;;21.78;50.97;100892.69;111410;1249;24238;-52
2024/04/11 07:02:16;;;;;;;9.30;3.70;;;;;;;21.98;48.22;100890.69;111274;1249;24132;-50
2024/04/11 07:04:56;;;;;;;6.20;2.80;;;;;;;22.22;46.82;100892.11;111115;1249;22927;-43
2024/04/11 07:07:35;;;;;;;;;;;;;;;22.42;45.45;100892.39;111054;1249;22630;-50
2024/04/11 07:10:15;;;;;;;7.90;3.50;;;;;;;22.59;44.49;100887.30;112228;1249;22518;-45
2024/04/11 07:12:46;;;;;;;10.30;3.60;;;;;;;22.75;44.13;100889.10;112333;1249;23323;-49
2024/04/11 07:15:18;;;;;;;5.00;3.50;;;;;;;22.91;44.10;100884.92;112010;1249;22442;-49
2024/04/11 07:21:38;;;;;;;6.00;2.70;;;;;;;23.25;42.26;100889.18;112196;1249;22880;-51
2024/04/11 07:24:09;;;;;;;14.70;3.30;;;;;;;23.41;41.35;100889.20;111836;1249;22365;-45
2024/04/11 07:27:03;;;;;;;7.40;3.30;;;;;;;23.53;41.13;100886.16;111715;1249;22792;-44
2024/04/11 07:29:52;;;;;;;3.70;2.70;;;;;;;23.71;40.07;100887.55;110997;1249;1350183;-52
2024/04/11 07:32:21;;;;;;;5.20;3.10;;;;;;;23.82;38.98;100884.16;112738;1249;23152;-51
2024/04/11 07:34:48;;;;;;;3.70;2.90;;;;;;;23.95;40.06;100885.56;112806;1249;22361;-44
2024/04/11 07:37:41;;;;;;;11.20;3.20;;;;;;;24.08;38.81;100889.38;112433;1249;22782;-44
2024/04/11 07:40:54;;;;;;;10.70;3.00;;;;;;;24.22;38.14;100884.29;112423;1249;23040;-51
2024/04/11 07:43:30;;;;;;;25.50;4.00;;;;;;;24.37;37.42;100886.27;112293;1249;22229;-43
2024/04/11 07:46:00;;;;;;;11.20;2.60;;;;;;;24.48;37.32;100888.23;112582;1249;23329;-51
2024/04/11 07:48:32;;;;;;;9.50;3.50;;;;;;;24.61;37.40;100888.68;112620;1249;22432;-44
2024/04/11 07:51:02;;;;;;;7.20;3.30;;;;;;;24.74;36.76;100886.08;112516;1249;22521;-44
2024/04/11 07:53:31;;;;;;;6.50;2.70;;;;;;;24.85;36.49;100888.19;112757;1249;22533;-51
2024/04/11 07:56:09;;;;;;;13.70;3.40;;;;;;;24.93;35.59;100889.55;112691;1249;22381;-52
2024/04/11 07:58:38;;;;;;;5.70;2.90;;;;;;;25.00;35.38;100891.56;112353;1249;24223;-52
2024/04/11 08:01:52;;;;;;;5.60;2.80;;;;;;;25.04;34.68;100890.63;112214;1249;24231;-51
2024/04/11 08:04:18;;;;;;;5.00;2.60;;;;;;;25.08;34.51;100890.28;112418;1249;22512;-44
2024/04/11 08:06:46;;;;;;;7.90;3.30;;;;;;;25.14;35.06;100888.70;112794;1249;22461;-44
2024/04/11 08:09:14;;;;;;;14.20;3.10;;;;;;;25.26;34.83;100891.29;112459;1249;22273;-45
2024/04/11 08:11:41;;;;;;;7.00;2.90;;;;;;;25.33;34.32;100891.50;112415;1249;24168;-45
2024/04/11 08:14:10;;;;;;;8.50;4.30;;;;;;;25.35;34.43;100891.71;111852;1249;22512;-51
2024/04/11 08:16:39;;;;;;;10.60;3.30;;;;;;;25.42;34.44;100890.27;112167;1249;23166;-53
2024/04/11 08:19:43;;;;;;;7.80;2.80;;;;;;;25.51;33.54;100894.30;112578;1249;22658;-52
2024/04/11 08:22:45;;;;;;;8.30;3.00;;;;;;;25.52;32.70;100890.69;112602;1249;22407;-52
2024/04/11 08:25:36;;;;;;;4.80;2.80;;;;;;;25.54;33.70;100890.03;112678;1249;22386;-51
2024/04/11 08:28:11;;;;;;;7.80;2.80;;;;;;;25.62;32.98;100885.84;112692;1249;22574;-51
2024/04/11 08:30:52;;;;;;;9.30;3.40;;;;;;;25.67;32.43;100888.27;112671;1249;22160;-43
2024/04/11 08:33:32;;;;;;;8.00;2.90;;;;;;;25.70;33.27;100886.84;112617;1249;22244;-43
2024/04/11 08:36:00;;;;;;;4.90;2.80;;;;;;;25.77;32.68;100886.52;112690;1249;22987;-44
2024/04/11 08:38:28;;;;;;;7.20;2.90;;;;;;;25.80;31.91;100887.95;112704;1249;23313;-46
2024/04/11 08:40:57;;;;;;;6.00;2.90;;;;;;;25.82;32.10;100885.67;112729;1249;22918;-51
2024/04/11 08:43:30;;;;;;;3.40;2.70;;;;;;;25.89;31.90;100886.39;112595;1249;23506;-50
2024/04/11 08:45:58;;;;;;;6.10;2.60;;;;;;;25.94;31.15;100887.37;112781;1249;22350;-51
2024/04/11 08:48:25;;;;;;;7.50;2.90;;;;;;;26.01;31.72;100887.01;112601;1249;22396;-50
2024/04/11 08:50:53;;;;;;;3.80;2.50;;;;;;;26.10;32.00;100884.33;112539;1249;22601;-51
2024/04/11 08:53:20;;;;;;;9.70;2.70;;;;;;;26.22;31.96;100883.12;112854;1249;23211;-51
2024/04/11 08:55:47;;;;;;;5.20;2.80;;;;;;;26.34;32.21;100884.27;112685;1249;22378;-51
2024/04/11 08:58:19;;;;;;;7.00;3.10;;;;;;;26.43;31.60;100887.52;112564;1247;22178;31
2024/04/11 09:01:07;;;;;;;7.40;2.80;;;;;;;26.53;31.74;100886.41;112158;1248;22554;-50
2024/04/11 09:03:40;;;;;;;9.30;3.30;;;;;;;26.67;30.84;100886.52;112712;1247;22440;-44
2024/04/11 09:06:12;;;;;;;6.00;2.90;;;;;;;26.75;31.32;100884.21;112746;1247;22878;-45
2024/04/11 09:08:40;;;;;;;6.00;2.20;;;;;;;26.83;30.78;100880.41;112174;1247;22432;-44
2024/04/11 09:11:07;;;;;;;12.70;3.00;;;;;;;26.89;30.54;100875.36;112832;1247;22957;-45
2024/04/11 09:13:36;;;;;;;7.80;2.70;;;;;;;26.97;30.96;100877.92;112364;1247;22494;-45
2024/04/11 09:16:06;;;;;;;5.40;2.80;;;;;;;27.11;30.91;100879.67;112244;1247;23241;-44
2024/04/11 09:18:38;;;;;;;6.70;3.10;;;;;;;27.24;30.95;100874.38;112361;1247;22448;-51
2024/04/11 09:21:11;;;;;;;7.30;2.90;;;;;;;27.35;30.76;100874.64;111982;1247;22497;-46
2024/04/11 09:23:46;;;;;;;4.70;2.90;;;;;;;27.43;30.69;100880.62;112563;1247;22462;-44
2024/04/11 09:26:14;;;;;;;8.40;3.20;;;;;;;27.47;29.85;100877.98;112858;1244;22415;-44
2024/04/11 09:28:43;;;;;;;4.30;2.70;;;;;;;27.43;29.00;100875.01;112731;1247;23129;-45
2024/04/11 09:31:11;;;;;;;27.60;3.50;;;;;;;27.33;29.25;100875.98;112690;1248;22263;-51
2024/04/11 09:33:39;;;;;;;9.80;2.50;;;;;;;27.33;30.18;100873.31;112601;1247;22427;-43
2024/04/11 09:36:10;;;;;;;13.60;2.80;;;;;;;27.44;30.97;100870.64;112200;1248;22420;-49
2024/04/11 09:38:41;;;;;;;16.50;3.10;;;;;;;27.53;30.69;100870.64;112499;1247;22698;-54
2024/04/11 09:41:14;;;;;;;9.10;2.90;;;;;;;27.56;30.87;100868.29;112055;1247;22440;-50
2024/04/11 09:43:42;;;;;;;8.80;2.60;;;;;;;27.61;30.41;100865.17;112742;1248;22446;-54
2024/04/11 09:46:17;;;;;;;9.30;3.60;;;;;;;27.67;28.80;100864.04;111312;1246;22503;-52
2024/04/11 09:48:44;;;;;;;18.10;2.90;;;;;;;27.75;29.96;100863.05;112220;1247;22419;-43
2024/04/11 09:51:15;;;;;;;12.90;3.30;;;;;;;27.83;30.22;100866.12;112603;1247;23020;-54
2024/04/11 09:53:42;;;;;;;7.10;2.80;;;;;;;27.90;29.75;100863.14;112804;1247;22432;-44
2024/04/11 09:56:13;;;;;;;9.50;2.80;;;;;;;27.99;29.31;100869.94;112531;1247;23725;-44
2024/04/11 09:58:41;;;;;;;6.10;2.30;;;;;;;27.99;28.91;100867.26;112365;1245;24348;-44
2024/04/11 10:01:31;;;;;;;6.20;2.80;;;;;;;27.96;28.79;100868.54;112595;1247;23536;-54
2024/04/11 10:04:00;;;;;;;5.70;3.00;;;;;;;27.98;28.96;100865.31;112472;1248;22272;-47
2024/04/11 10:06:29;;;;;;;5.70;2.70;;;;;;;28.01;29.07;100862.81;112659;1247;22514;-44
2024/04/11 10:09:11;;;;;;;4.40;2.60;;;;;;;28.07;28.71;100869.80;112605;1247;22561;-52
2024/04/11 10:11:45;;;;;;;3.60;2.30;;;;;;;28.14;28.88;100858.38;112377;1247;23255;-44
2024/04/11 10:14:20;;;;;;;6.40;2.80;;;;;;;28.22;28.67;100858.59;112188;1247;22644;-55
2024/04/11 10:16:55;;;;;;;3.90;2.50;;;;;;;28.31;28.60;100858.58;112749;1247;22908;-44
2024/04/11 10:19:29;;;;;;;5.40;2.80;;;;;;;28.42;28.61;100856.98;112744;1247;22360;-45
2024/04/11 10:22:06;;;;;;;3.30;2.60;;;;;;;28.57;28.41;100862.02;112730;1247;23522;-46
2024/04/11 10:24:55;;;;;;;9.20;2.70;;;;;;;28.78;27.91;100858.34;112835;1247;22340;-44
2024/04/11 10:27:47;;;;;;;6.80;2.80;;;;;;;29.12;27.85;100860.90;112796;1247;22372;-49
2024/04/11 10:30:27;;;;;;;8.50;2.80;;;;;;;29.43;27.59;100861.81;112617;1247;22429;-46
2024/04/11 10:32:54;;;;;;;8.30;3.00;;;;;;;29.71;27.12;100863.10;111930;1247;23136;-45
2024/04/11 10:35:24;;;;;;;6.40;2.60;;;;;;;30.05;26.91;100862.30;112833;1247;23221;-43
2024/04/11 10:37:55;;;;;;;6.50;2.50;;;;;;;30.42;25.82;100859.59;112862;1247;22752;-45
2024/04/11 10:40:24;;;;;;;6.40;2.50;;;;;;;30.79;25.04;100856.98;112908;1247;22444;-45
2024/04/11 10:45:39;;;;;;;7.40;2.40;;;;;;;31.48;23.54;100859.78;112924;1247;22239;-51
2024/04/11 10:48:10;;;;;;;4.50;2.70;;;;;;;31.52;23.57;100860.38;112954;1247;22381;-55
2024/04/11 10:50:37;;;;;;;7.10;2.80;;;;;;;31.61;23.22;100859.14;112999;1247;22382;-53
2024/04/11 10:53:06;;;;;;;10.80;2.50;;;;;;;31.72;22.91;100853.75;112757;1247;22436;-51
2024/04/11 10:55:35;;;;;;;7.10;2.60;;;;;;;31.99;23.15;100859.85;112948;1247;22408;-50
2024/04/11 10:58:09;;;;;;;8.40;2.70;;;;;;;32.36;22.68;100850.40;112949;1247;22387;-53
2024/04/11 11:06:26;;;;;;;6.90;2.80;;;;;;;33.63;20.56;100850.92;111545;1254;22452;-46
2024/04/11 11:09:00;;;;;;;7.90;2.60;;;;;;;33.59;21.03;100850.21;112043;1254;22834;-46
2024/04/11 11:11:27;;;;;;;3.80;2.40;;;;;;;33.45;20.96;100849.94;111804;1242;22601;-53
2024/04/11 11:13:55;;;;;;;5.00;3.00;;;;;;;33.09;20.62;100848.58;112208;1240;22230;-53
2024/04/11 11:16:31;;;;;;;4.00;2.40;;;;;;;32.46;21.40;100851.36;111788;1254;24195;-53
2024/04/11 11:18:58;;;;;;;6.20;2.50;;;;;;;31.90;21.77;100853.90;111919;1254;23192;-53
2024/04/11 11:21:42;;;;;;;9.10;2.70;;;;;;;31.51;21.87;100855.02;111987;1254;23304;-52
2024/04/11 11:24:14;;;;;;;;;;;;;;;31.24;22.20;100846.91;112035;1254;22993;-46
2024/04/11 11:26:47;;;;;;;3.80;2.50;;;;;;;30.98;21.97;100845.80;112195;1254;23229;-46
2024/04/11 11:29:20;;;;;;;10.40;2.70;;;;;;;30.58;22.58;100844.87;112141;1254;22419;-44
2024/04/11 11:31:52;;;;;;;14.30;2.90;;;;;;;30.27;22.78;100839.81;111861;1254;22954;-46
2024/04/11 11:34:27;;;;;;;4.40;2.50;;;;;;;30.16;22.68;100835.42;112003;1254;22463;-44
2024/04/11 11:37:12;;;;;;;16.90;2.60;;;;;;;30.17;23.30;100829.40;112019;1254;22792;-46
2024/04/11 11:43:22;;;;;;;5.40;2.40;;;;;;;30.38;23.15;100828.05;112695;1247;23551;-48
2024/04/11 11:48:51;;;;;;;5.50;2.60;;;;;;;30.33;23.67;100826.22;112419;1253;22415;-46
2024/04/11 11:51:19;;;;;;;5.70;2.20;;;;;;;30.13;23.83;100824.48;112492;1252;22391;-47
2024/04/11 11:53:49;;;;;;;4.10;2.20;;;;;;;30.05;23.47;100821.64;112465;1252;23299;-52
2024/04/11 11:56:16;;;;;;;5.00;2.50;;;;;;;29.98;22.96;100822.16;112468;1253;22287;-54
2024/04/11 11:58:55;;;;;;;3.00;2.10;;;;;;;29.88;23.03;100821.60;111944;1253;22438;-45
2024/04/11 12:01:35;;;;;;;6.50;2.40;;;;;;;29.83;23.52;100822.67;112404;1250;22399;-53
2024/04/11 12:04:07;;;;;;;3.30;2.60;;;;;;;29.88;23.99;100816.36;112357;1253;22419;-48
2024/04/11 12:06:34;;;;;;;3.90;2.20;;;;;;;30.01;23.88;100811.65;112379;1253;22454;-44
2024/04/11 12:09:11;;;;;;;9.80;2.40;;;;;;;30.20;23.54;100812.83;112402;1253;22434;-46
2024/04/11 12:11:53;;;;;;;7.50;3.00;;;;;;;30.34;23.53;100818.05;112450;1253;22493;-53
2024/04/11 12:14:34;;;;;;;4.70;2.30;;;;;;;30.53;22.98;100816.11;112374;1252;23426;-46
2024/04/11 12:17:04;;;;;;;7.50;2.20;;;;;;;30.69;22.85;100815.27;112402;1252;22758;-45
2024/04/11 12:19:31;;;;;;;7.90;2.20;;;;;;;30.76;22.47;100810.23;112426;1253;22288;-54
2024/04/11 12:22:11;;;;;;;10.10;2.10;;;;;;;30.76;23.35;100806.28;112472;1252;22419;-56
2024/04/11 12:24:39;;;;;;;4.80;2.00;;;;;;;30.76;22.83;100803.80;112943;1247;23471;-47
2024/04/11 12:27:13;;;;;;;8.00;2.80;;;;;;;30.63;23.56;100796.61;112965;1247;22930;-45
2024/04/11 12:29:42;;;;;;;4.80;2.40;;;;;;;30.46;23.29;100799.37;112956;1247;22358;-57
2024/04/11 12:32:17;;;;;;;4.60;2.40;;;;;;;30.27;23.32;100801.86;112650;1247;22448;-58
2024/04/11 12:34:45;;;;;;;9.30;2.90;;;;;;;30.05;23.64;100802.20;113025;1247;22364;-47
2024/04/11 12:37:15;;;;;;;6.10;2.60;;;;;;;29.87;23.25;100795.98;113055;1247;22410;-57
2024/04/11 12:39:53;;;;;;;6.90;2.40;;;;;;;29.76;23.62;100795.17;113046;1247;23593;-56
2024/04/11 12:42:22;;;;;;;10.30;2.60;;;;;;;29.79;23.89;100792.95;113067;1247;23089;-47
2024/04/11 12:44:49;;;;;;;4.10;2.20;;;;;;;29.84;23.93;100795.12;113094;1247;23271;-46
2024/04/11 12:47:23;;;;;;;3.40;2.10;;;;;;;29.89;23.70;100794.73;112258;1247;22543;-46
2024/04/11 12:49:50;;;;;;;17.30;2.80;;;;;;;29.97;24.15;100793.26;111168;1247;26459;-43
2024/04/11 12:52:23;;;;;;;27.90;3.30;;;;;;;30.01;24.19;100790.31;111818;1247;22574;-45
2024/04/11 12:54:58;;;;;;;5.10;2.10;;;;;;;29.91;24.10;100787.90;110773;1247;25508;-57
2024/04/11 12:57:28;;;;;;;9.60;2.20;;;;;;;29.84;23.11;100789.52;110683;1248;25435;-46
2024/04/11 13:00:07;;;;;;;10.30;2.60;;;;;;;29.91;23.56;100787.77;110713;1247;22505;-45
2024/04/11 13:02:41;;;;;;;2.80;1.90;;;;;;;30.17;23.30;100785.14;112372;1247;22514;-53
2024/04/11 13:05:13;;;;;;;5.30;2.70;;;;;;;30.40;22.94;100779.48;110703;1247;22583;-46
2024/04/11 13:07:45;;;;;;;6.20;2.60;;;;;;;30.51;22.96;100787.28;113078;1247;22536;-46
2024/04/11 13:10:12;;;;;;;5.90;2.10;;;;;;;30.60;23.01;100780.64;112839;1247;22525;-46
2024/04/11 13:12:44;;;;;;;10.00;2.30;;;;;;;30.79;22.72;100778.70;112294;1247;23321;-46
2024/04/11 13:15:19;;;;;;;4.10;2.20;;;;;;;31.01;22.78;100772.27;111119;1247;23260;-55
2024/04/11 13:17:52;;;;;;;6.90;2.30;;;;;;;31.08;21.81;100778.77;112053;1247;22446;-53
2024/04/11 13:20:27;;;;;;;11.30;3.70;;;;;;;30.79;21.85;100779.38;112543;1247;22510;-49
2024/04/11 13:23:09;;;;;;;8.50;2.50;;;;;;;30.69;21.81;100777.80;113124;1247;22399;-46
2024/04/11 13:25:45;;;;;;;8.30;3.00;;;;;;;30.76;21.72;100783.63;112266;1248;23036;-55
2024/04/11 13:28:12;;;;;;;6.70;2.70;;;;;;;30.69;21.62;100779.44;110888;1247;22515;-56
2024/04/11 13:30:42;;;;;;;5.10;2.70;;;;;;;30.63;22.12;100773.73;111505;1248;23913;-47
